createdAt,value
2022-12-23T00:00:08.942Z,88.94
2022-12-23T00:00:20.936Z,88.99
2022-12-23T00:00:32.935Z,88.72
2022-12-23T00:00:45.052Z,88.76
2022-12-23T00:01:01.995Z,89.04
2022-12-23T00:01:15.552Z,89.21
2022-12-23T00:01:28.138Z,89.22
2022-12-23T00:01:40.181Z,89.02
2022-12-23T00:01:57.236Z,89.13
2022-12-23T00:02:09.377Z,89.47
2022-12-23T00:02:21.592Z,89.40
2022-12-23T00:02:33.825Z,89.38
2022-12-23T00:02:46.334Z,88.89
2022-12-23T00:02:58.487Z,89.00
2022-12-23T00:03:10.651Z,88.79
2022-12-23T00:03:23.387Z,88.75
2022-12-23T00:03:35.698Z,88.69
2022-12-23T00:03:47.781Z,89.03
2022-12-23T00:03:59.806Z,88.68
2022-12-23T00:04:11.959Z,89.09
2022-12-23T00:04:24.063Z,88.68
2022-12-23T00:04:36.047Z,88.92
2022-12-23T00:04:47.988Z,88.66
2022-12-23T00:04:59.921Z,88.80
2022-12-23T00:05:12.402Z,89.29
2022-12-23T00:05:24.402Z,88.99
2022-12-23T00:05:39.760Z,89.07
2022-12-23T00:05:52.487Z,88.49
2022-12-23T00:06:12.155Z,88.64
2022-12-23T00:06:24.210Z,88.93
2022-12-23T00:06:36.161Z,88.55
2022-12-23T00:06:48.076Z,88.85
2022-12-23T00:06:59.968Z,88.71
2022-12-23T00:07:11.903Z,88.98
2022-12-23T00:07:23.887Z,88.80
2022-12-23T00:07:36.159Z,88.86
2022-12-23T00:07:48.144Z,89.05
2022-12-23T00:08:00.115Z,89.07
2022-12-23T00:08:12.073Z,89.17
2022-12-23T00:08:25.439Z,89.03
2022-12-23T00:08:37.769Z,89.43
2022-12-23T00:08:49.788Z,89.16
2022-12-23T00:09:01.745Z,89.07
2022-12-23T00:09:13.913Z,89.67
2022-12-23T00:09:25.884Z,89.51
2022-12-23T00:09:37.861Z,90.04
2022-12-23T00:09:49.853Z,89.95
2022-12-23T00:10:02.739Z,90.41
2022-12-23T00:10:14.703Z,90.41
2022-12-23T00:10:26.697Z,90.52
2022-12-23T00:10:39.836Z,91.04
2022-12-23T00:10:53.495Z,91.08
2022-12-23T00:11:13.194Z,91.02
2022-12-23T00:11:26.023Z,91.26
2022-12-23T00:11:57.874Z,91.35
2022-12-23T00:12:28.272Z,91.02
2022-12-23T00:12:58.567Z,91.23
2022-12-23T00:13:30.398Z,91.06
2022-12-23T00:14:01.239Z,90.94
2022-12-23T00:14:31.638Z,90.75
2022-12-23T00:15:01.991Z,90.31
2022-12-23T00:15:14.649Z,89.91
2022-12-23T00:15:26.677Z,90.12
2022-12-23T00:15:38.579Z,90.12
2022-12-23T00:15:50.534Z,90.12
2022-12-23T00:16:04.139Z,90.18
2022-12-23T00:16:16.559Z,90.44
2022-12-23T00:16:28.985Z,90.56
2022-12-23T00:16:41.057Z,90.33
2022-12-23T00:16:53.296Z,90.61
2022-12-23T00:17:17.564Z,90.13
2022-12-23T00:17:36.262Z,90.67
2022-12-23T00:17:48.285Z,90.95
2022-12-23T00:18:00.201Z,90.74
2022-12-23T00:18:12.161Z,91.21
2022-12-23T00:18:24.081Z,91.10
2022-12-23T00:18:36.504Z,91.37
2022-12-23T00:18:48.543Z,91.19
2022-12-23T00:19:00.645Z,91.07
2022-12-23T00:19:12.587Z,91.24
2022-12-23T00:19:24.615Z,91.06
2022-12-23T00:19:36.523Z,91.39
2022-12-23T00:19:48.543Z,91.38
2022-12-23T00:20:01.061Z,91.35
2022-12-23T00:20:14.925Z,91.59
2022-12-23T00:20:26.876Z,91.51
2022-12-23T00:20:38.905Z,91.26
2022-12-23T00:20:57.732Z,91.34
2022-12-23T00:21:12.859Z,91.01
2022-12-23T00:21:24.777Z,90.75
2022-12-23T00:21:36.863Z,90.89
2022-12-23T00:21:48.885Z,90.71
2022-12-23T00:22:00.892Z,91.25
2022-12-23T00:22:12.832Z,90.86
2022-12-23T00:22:44.924Z,90.78
2022-12-23T00:23:05.577Z,91.17
2022-12-23T00:23:17.513Z,91.40
2022-12-23T00:23:33.164Z,90.88
2022-12-23T00:23:47.831Z,91.02
2022-12-23T00:23:59.760Z,91.25
2022-12-23T00:24:12.121Z,90.91
2022-12-23T00:24:24.226Z,90.98
2022-12-23T00:24:36.168Z,90.51
2022-12-23T00:24:48.343Z,90.95
2022-12-23T00:25:00.304Z,90.68
2022-12-23T00:25:13.617Z,90.67
2022-12-23T00:25:41.491Z,90.74
2022-12-23T00:25:55.723Z,91.05
2022-12-23T00:26:12.652Z,91.23
2022-12-23T00:26:27.216Z,90.91
2022-12-23T00:26:39.152Z,90.95
2022-12-23T00:26:51.235Z,91.36
2022-12-23T00:27:03.180Z,91.11
2022-12-23T00:27:15.116Z,91.43
2022-12-23T00:27:27.113Z,91.43
2022-12-23T00:27:39.636Z,91.62
2022-12-23T00:28:01.380Z,91.42
2022-12-23T00:28:13.476Z,91.77
2022-12-23T00:28:27.513Z,91.21
2022-12-23T00:28:39.510Z,91.68
2022-12-23T00:28:52.059Z,91.44
2022-12-23T00:29:04.004Z,91.50
2022-12-23T00:29:15.950Z,91.40
2022-12-23T00:29:28.005Z,91.78
2022-12-23T00:29:40.000Z,91.93
2022-12-23T00:29:51.949Z,91.77
2022-12-23T00:30:05.990Z,91.76
2022-12-23T00:30:18.117Z,91.97
2022-12-23T00:30:30.107Z,91.61
2022-12-23T00:30:48.180Z,91.90
2022-12-23T00:31:07.388Z,92.21
2022-12-23T00:31:21.302Z,91.79
2022-12-23T00:31:33.397Z,92.07
2022-12-23T00:31:45.538Z,92.07
2022-12-23T00:31:57.640Z,91.79
2022-12-23T00:32:10.021Z,92.29
2022-12-23T00:32:22.021Z,92.10
2022-12-23T00:32:33.976Z,92.38
2022-12-23T00:32:45.901Z,91.99
2022-12-23T00:32:58.821Z,91.99
2022-12-23T00:33:10.714Z,91.75
2022-12-23T00:33:25.843Z,92.23
2022-12-23T00:33:40.685Z,92.09
2022-12-23T00:33:54.191Z,91.92
2022-12-23T00:34:06.172Z,91.65
2022-12-23T00:34:18.161Z,91.30
2022-12-23T00:34:30.125Z,91.26
2022-12-23T00:34:42.093Z,91.09
2022-12-23T00:34:54.031Z,91.24
2022-12-23T00:35:06.374Z,91.73
2022-12-23T00:35:18.305Z,91.31
2022-12-23T00:35:32.163Z,91.08
2022-12-23T00:35:45.187Z,91.39
2022-12-23T00:35:57.216Z,91.52
2022-12-23T00:36:17.989Z,91.41
2022-12-23T00:36:30.642Z,91.50
2022-12-23T00:36:43.052Z,91.87
2022-12-23T00:36:55.032Z,91.85
2022-12-23T00:37:07.001Z,91.55
2022-12-23T00:37:18.957Z,91.49
2022-12-23T00:37:31.254Z,91.48
2022-12-23T00:37:43.177Z,91.93
2022-12-23T00:37:55.103Z,91.69
2022-12-23T00:38:07.074Z,91.89
2022-12-23T00:38:38.979Z,91.83
2022-12-23T00:39:10.299Z,91.84
2022-12-23T00:39:40.606Z,91.87
2022-12-23T00:40:11.042Z,91.96
2022-12-23T00:40:41.375Z,91.96
2022-12-23T00:41:11.816Z,92.28
2022-12-23T00:41:42.632Z,92.28
2022-12-23T00:42:13.016Z,92.41
2022-12-23T00:42:43.446Z,92.19
2022-12-23T00:42:55.478Z,92.64
2022-12-23T00:43:07.579Z,92.61
2022-12-23T00:43:19.546Z,92.45
2022-12-23T00:43:31.482Z,92.37
2022-12-23T00:43:43.365Z,92.32
2022-12-23T00:43:55.401Z,92.26
2022-12-23T00:44:07.312Z,91.87
2022-12-23T00:44:19.350Z,91.98
2022-12-23T00:44:31.596Z,92.16
2022-12-23T00:44:43.637Z,92.01
2022-12-23T00:45:15.346Z,92.00
2022-12-23T00:45:27.373Z,92.33
2022-12-23T00:45:39.399Z,92.32
2022-12-23T00:45:51.381Z,92.23
2022-12-23T00:46:03.402Z,91.99
2022-12-23T00:46:15.555Z,91.75
2022-12-23T00:46:28.312Z,92.03
2022-12-23T00:46:40.532Z,91.95
2022-12-23T00:46:52.538Z,91.90
2022-12-23T00:47:04.563Z,92.23
2022-12-23T00:47:36.485Z,92.61
2022-12-23T00:48:07.020Z,92.65
2022-12-23T00:48:37.460Z,92.75
2022-12-23T00:49:07.688Z,93.49
2022-12-23T00:49:39.626Z,93.37
2022-12-23T00:49:51.536Z,93.60
2022-12-23T00:50:03.687Z,93.45
2022-12-23T00:50:15.756Z,93.54
2022-12-23T00:50:30.138Z,93.72
2022-12-23T00:50:42.088Z,93.65
2022-12-23T00:50:54.031Z,93.86
2022-12-23T00:51:06.111Z,93.55
2022-12-23T00:51:18.020Z,93.86
2022-12-23T00:51:30.068Z,93.83
2022-12-23T00:51:41.989Z,93.79
2022-12-23T00:51:53.948Z,94.01
2022-12-23T00:52:08.258Z,94.15
2022-12-23T00:52:20.184Z,93.97
2022-12-23T00:52:32.111Z,93.97
2022-12-23T00:52:44.034Z,94.09
2022-12-23T00:52:56.863Z,94.10
2022-12-23T00:53:08.811Z,94.27
2022-12-23T00:53:21.115Z,94.37
2022-12-23T00:53:33.071Z,94.81
2022-12-23T00:53:45.004Z,94.41
2022-12-23T00:53:57.110Z,94.84
2022-12-23T00:54:09.137Z,94.97
2022-12-23T00:54:21.207Z,94.95
2022-12-23T00:54:33.227Z,95.09
2022-12-23T00:54:45.212Z,95.19
2022-12-23T00:54:57.181Z,95.25
2022-12-23T00:55:09.341Z,95.49
2022-12-23T00:55:21.578Z,95.08
2022-12-23T00:55:33.541Z,95.47
2022-12-23T00:55:47.743Z,95.17
2022-12-23T00:55:59.707Z,95.43
2022-12-23T00:56:11.608Z,95.91
2022-12-23T00:56:23.615Z,95.75
2022-12-23T00:56:35.694Z,95.88
2022-12-23T00:56:47.635Z,96.01
2022-12-23T00:57:00.358Z,95.82
2022-12-23T00:57:12.373Z,95.65
2022-12-23T00:57:24.267Z,95.93
2022-12-23T00:57:36.143Z,95.90
2022-12-23T00:57:48.190Z,96.10
2022-12-23T00:58:00.101Z,96.18
2022-12-23T00:58:12.118Z,95.93
2022-12-23T00:58:24.068Z,95.86
2022-12-23T00:58:36.040Z,95.99
2022-12-23T00:58:47.989Z,96.01
2022-12-23T00:59:00.371Z,95.61
2022-12-23T00:59:12.671Z,95.86
2022-12-23T00:59:24.814Z,96.04
2022-12-23T00:59:36.772Z,96.19
2022-12-23T00:59:48.750Z,95.99
2022-12-23T01:00:00.637Z,96.15
2022-12-23T01:00:13.223Z,96.53
2022-12-23T01:00:45.241Z,96.44
2022-12-23T01:01:15.652Z,96.71
2022-12-23T01:01:46.305Z,96.98
2022-12-23T01:02:17.216Z,96.84
2022-12-23T01:02:47.940Z,97.18
2022-12-23T01:03:18.506Z,97.25
2022-12-23T01:03:49.385Z,97.46
2022-12-23T01:04:21.398Z,97.42
2022-12-23T01:04:52.285Z,97.08
2022-12-23T01:05:23.238Z,97.31
2022-12-23T01:05:38.907Z,96.96
2022-12-23T01:05:50.831Z,96.91
2022-12-23T01:06:03.373Z,97.09
2022-12-23T01:06:16.096Z,97.20
2022-12-23T01:06:28.191Z,97.35
2022-12-23T01:06:40.111Z,97.70
2022-12-23T01:06:52.107Z,97.39
2022-12-23T01:07:05.165Z,97.26
2022-12-23T01:07:17.078Z,97.63
2022-12-23T01:07:29.022Z,97.77
2022-12-23T01:07:42.409Z,97.90
2022-12-23T01:07:55.969Z,97.88
2022-12-23T01:08:12.123Z,97.57
2022-12-23T01:08:24.173Z,97.43
2022-12-23T01:08:36.830Z,97.61
2022-12-23T01:08:48.717Z,97.65
2022-12-23T01:09:00.644Z,97.92
2022-12-23T01:09:12.616Z,97.85
2022-12-23T01:09:25.095Z,98.01
2022-12-23T01:09:37.075Z,98.39
2022-12-23T01:09:49.035Z,98.71
2022-12-23T01:10:01.005Z,98.52
2022-12-23T01:10:13.103Z,98.59
2022-12-23T01:10:25.069Z,98.85
2022-12-23T01:10:40.973Z,98.86
2022-12-23T01:10:53.284Z,98.97
2022-12-23T01:11:07.969Z,98.53
2022-12-23T01:11:19.905Z,99.00
2022-12-23T01:11:31.904Z,99.02
2022-12-23T01:11:43.906Z,98.87
2022-12-23T01:11:55.891Z,99.01
2022-12-23T01:12:07.920Z,99.40
2022-12-23T01:12:19.929Z,99.29
2022-12-23T01:12:31.916Z,99.18
2022-12-23T01:12:43.850Z,99.51
2022-12-23T01:12:55.792Z,99.25
2022-12-23T01:13:07.946Z,99.59
2022-12-23T01:13:20.286Z,99.52
2022-12-23T01:13:33.045Z,99.51
2022-12-23T01:13:45.092Z,99.87
2022-12-23T01:13:58.402Z,99.76
2022-12-23T01:14:11.561Z,99.99
2022-12-23T01:14:24.192Z,99.86
2022-12-23T01:14:36.523Z,100.00
2022-12-23T01:14:48.783Z,100.00
2022-12-23T01:15:00.785Z,99.91
2022-12-23T01:15:12.717Z,100.00
2022-12-23T01:15:24.711Z,99.71
2022-12-23T01:15:36.650Z,99.88
2022-12-23T01:15:48.628Z,100.00
2022-12-23T01:16:16.741Z,99.67
2022-12-23T01:16:29.742Z,100.00
2022-12-23T01:16:42.013Z,100.00
2022-12-23T01:16:54.101Z,100.00
2022-12-23T01:17:07.647Z,100.00
2022-12-23T01:17:19.714Z,100.00
2022-12-23T01:17:31.714Z,100.00
2022-12-23T01:17:43.636Z,100.00
2022-12-23T01:17:55.911Z,100.00
2022-12-23T01:18:08.101Z,100.00
2022-12-23T01:18:20.006Z,100.00
2022-12-23T01:18:34.231Z,100.00
2022-12-23T01:18:46.226Z,100.00
2022-12-23T01:18:58.709Z,100.00
2022-12-23T01:19:11.919Z,100.00
2022-12-23T01:19:24.005Z,100.00
2022-12-23T01:19:36.365Z,100.00
2022-12-23T01:19:48.307Z,100.00
2022-12-23T01:20:00.285Z,100.00
2022-12-23T01:20:12.771Z,100.00
2022-12-23T01:20:25.075Z,100.00
2022-12-23T01:20:40.942Z,100.00
2022-12-23T01:20:52.850Z,100.00
2022-12-23T01:21:08.020Z,100.00
2022-12-23T01:21:20.071Z,100.00
2022-12-23T01:21:32.438Z,100.00
2022-12-23T01:21:44.440Z,100.00
2022-12-23T01:21:56.405Z,100.00
2022-12-23T01:22:08.394Z,100.00
2022-12-23T01:22:20.422Z,100.00
2022-12-23T01:22:32.344Z,100.00
2022-12-23T01:22:44.314Z,100.00
2022-12-23T01:22:56.289Z,100.00
2022-12-23T01:23:08.332Z,100.00
2022-12-23T01:23:20.454Z,100.00
2022-12-23T01:23:33.495Z,100.00
2022-12-23T01:23:45.541Z,100.00
2022-12-23T01:23:57.575Z,100.00
2022-12-23T01:24:09.658Z,100.00
2022-12-23T01:24:21.703Z,100.00
2022-12-23T01:24:33.886Z,100.00
2022-12-23T01:24:45.921Z,100.00
2022-12-23T01:24:57.812Z,100.00
2022-12-23T01:25:09.971Z,100.00
2022-12-23T01:25:21.896Z,100.00
2022-12-23T01:25:33.888Z,100.00
2022-12-23T01:25:45.965Z,100.00
2022-12-23T01:25:59.535Z,100.00
2022-12-23T01:26:11.706Z,100.00
2022-12-23T01:26:23.969Z,100.00
2022-12-23T01:26:35.960Z,100.00
2022-12-23T01:26:48.033Z,100.00
2022-12-23T01:27:00.284Z,100.00
2022-12-23T01:27:12.391Z,100.00
2022-12-23T01:27:24.398Z,100.00
2022-12-23T01:27:36.349Z,100.00
2022-12-23T01:27:48.374Z,100.00
2022-12-23T01:28:00.439Z,100.00
2022-12-23T01:28:12.572Z,100.00
2022-12-23T01:28:25.128Z,100.00
2022-12-23T01:28:37.196Z,100.00
2022-12-23T01:28:53.433Z,100.00
2022-12-23T01:29:05.450Z,100.00
2022-12-23T01:29:17.417Z,100.00
2022-12-23T01:29:29.792Z,100.00
2022-12-23T01:29:41.715Z,100.00
2022-12-23T01:29:53.681Z,100.00
2022-12-23T01:30:06.439Z,100.00
2022-12-23T01:30:18.455Z,100.00
2022-12-23T01:30:30.427Z,100.00
2022-12-23T01:30:42.395Z,100.00
2022-12-23T01:30:54.314Z,100.00
2022-12-23T01:31:10.020Z,100.00
2022-12-23T01:31:23.254Z,100.00
2022-12-23T01:31:35.234Z,100.00
2022-12-23T01:31:47.614Z,100.00
2022-12-23T01:31:59.792Z,100.00
2022-12-23T01:32:11.962Z,100.00
2022-12-23T01:32:23.956Z,100.00
2022-12-23T01:32:36.072Z,100.00
2022-12-23T01:32:48.096Z,100.00
2022-12-23T01:33:00.341Z,100.00
2022-12-23T01:33:12.245Z,100.00
2022-12-23T01:33:24.314Z,100.00
2022-12-23T01:33:36.273Z,100.00
2022-12-23T01:33:48.319Z,100.00
2022-12-23T01:34:00.307Z,100.00
2022-12-23T01:34:12.475Z,100.00
2022-12-23T01:34:24.450Z,100.00
2022-12-23T01:34:37.656Z,100.00
2022-12-23T01:34:49.812Z,100.00
2022-12-23T01:35:01.742Z,100.00
2022-12-23T01:35:13.852Z,100.00
2022-12-23T01:35:25.824Z,100.00
2022-12-23T01:35:37.719Z,100.00
2022-12-23T01:35:49.662Z,100.00
2022-12-23T01:36:07.066Z,100.00
2022-12-23T01:36:19.403Z,100.00
2022-12-23T01:36:31.380Z,100.00
2022-12-23T01:36:43.494Z,100.00
2022-12-23T01:36:55.458Z,100.00
2022-12-23T01:37:07.491Z,100.00
2022-12-23T01:37:19.405Z,100.00
2022-12-23T01:37:31.488Z,100.00
2022-12-23T01:37:43.449Z,100.00
2022-12-23T01:37:55.373Z,100.00
2022-12-23T01:38:07.345Z,100.00
2022-12-23T01:38:19.334Z,100.00
2022-12-23T01:38:31.435Z,100.00
2022-12-23T01:38:43.426Z,100.00
2022-12-23T01:38:56.421Z,100.00
2022-12-23T01:39:08.356Z,100.00
2022-12-23T01:39:20.328Z,100.00
2022-12-23T01:39:32.315Z,100.00
2022-12-23T01:39:44.335Z,100.00
2022-12-23T01:39:56.292Z,100.00
2022-12-23T01:40:09.328Z,100.00
2022-12-23T01:40:21.281Z,100.00
2022-12-23T01:40:37.515Z,100.00
2022-12-23T01:40:50.772Z,100.00
2022-12-23T01:41:02.732Z,100.00
2022-12-23T01:41:45.711Z,100.00
2022-12-23T01:42:16.141Z,100.00
2022-12-23T01:42:47.531Z,100.00
2022-12-23T01:42:59.575Z,100.00
2022-12-23T01:43:16.843Z,100.00
2022-12-23T01:43:51.940Z,100.00
2022-12-23T01:44:42.745Z,100.00
2022-12-23T01:45:04.428Z,100.00
2022-12-23T01:45:19.093Z,100.00
2022-12-23T01:45:32.697Z,100.00
2022-12-23T01:45:45.004Z,100.00
2022-12-23T01:45:57.077Z,100.00
2022-12-23T01:46:09.023Z,100.00
2022-12-23T01:46:21.083Z,100.00
2022-12-23T01:46:33.131Z,100.00
2022-12-23T01:46:45.083Z,100.00
2022-12-23T01:46:57.018Z,100.00
2022-12-23T01:47:14.753Z,100.00
2022-12-23T01:47:41.590Z,100.00
2022-12-23T01:47:56.410Z,100.00
2022-12-23T01:48:22.748Z,100.00
2022-12-23T01:48:34.883Z,100.00
2022-12-23T01:48:50.830Z,100.00
2022-12-23T01:49:02.754Z,100.00
2022-12-23T01:49:14.730Z,100.00
2022-12-23T01:49:26.850Z,100.00
2022-12-23T01:49:40.008Z,100.00
2022-12-23T01:49:57.408Z,100.00
2022-12-23T01:50:23.571Z,100.00
2022-12-23T01:50:40.277Z,100.00
2022-12-23T01:51:28.557Z,100.00
2022-12-23T01:51:40.503Z,100.00
2022-12-23T01:51:52.461Z,100.00
2022-12-23T01:52:04.457Z,100.00
2022-12-23T01:52:16.728Z,100.00
2022-12-23T01:52:29.867Z,100.00
2022-12-23T01:52:55.881Z,100.00
2022-12-23T01:53:16.848Z,100.00
2022-12-23T01:53:33.086Z,100.00
2022-12-23T01:53:48.908Z,100.00
2022-12-23T01:54:02.115Z,99.72
2022-12-23T01:54:14.057Z,100.00
2022-12-23T01:54:27.760Z,99.87
2022-12-23T01:54:41.675Z,100.00
2022-12-23T01:54:55.097Z,100.00
2022-12-23T01:55:07.796Z,100.00
2022-12-23T01:55:25.534Z,100.00
2022-12-23T01:56:00.448Z,100.00
2022-12-23T01:56:36.029Z,100.00
2022-12-23T01:56:48.449Z,100.00
2022-12-23T01:57:00.421Z,100.00
2022-12-23T01:57:12.769Z,100.00
2022-12-23T01:57:24.967Z,100.00
2022-12-23T01:57:41.815Z,100.00
2022-12-23T01:57:58.947Z,100.00
2022-12-23T01:58:14.615Z,100.00
2022-12-23T01:58:32.128Z,100.00
2022-12-23T01:58:58.131Z,100.00
2022-12-23T01:59:34.088Z,100.00
2022-12-23T02:00:04.504Z,100.00
2022-12-23T02:00:35.346Z,100.00
2022-12-23T02:01:05.635Z,100.00
2022-12-23T02:01:36.616Z,100.00
2022-12-23T02:02:07.376Z,100.00
2022-12-23T02:02:40.145Z,100.00
2022-12-23T02:03:11.262Z,100.00
2022-12-23T02:03:41.760Z,100.00
2022-12-23T02:03:59.210Z,100.00
2022-12-23T02:04:15.816Z,100.00
2022-12-23T02:04:27.771Z,100.00
2022-12-23T02:04:39.812Z,100.00
2022-12-23T02:04:52.820Z,100.00
2022-12-23T02:05:05.074Z,100.00
2022-12-23T02:05:17.449Z,100.00
2022-12-23T02:05:29.645Z,100.00
2022-12-23T02:05:44.720Z,100.00
2022-12-23T02:06:18.304Z,100.00
2022-12-23T02:06:57.628Z,100.00
2022-12-23T02:07:29.881Z,100.00
2022-12-23T02:08:01.668Z,100.00
2022-12-23T02:08:35.047Z,100.00
2022-12-23T02:09:05.410Z,100.00
2022-12-23T02:09:19.073Z,100.00
2022-12-23T02:09:33.810Z,100.00
2022-12-23T02:09:45.819Z,100.00
2022-12-23T02:09:58.396Z,100.00
2022-12-23T02:10:10.923Z,100.00
2022-12-23T02:10:30.944Z,100.00
2022-12-23T02:11:08.844Z,100.00
2022-12-23T02:11:43.618Z,100.00
2022-12-23T02:12:23.930Z,100.00
2022-12-23T02:12:45.747Z,100.00
2022-12-23T02:13:19.862Z,100.00
2022-12-23T02:14:03.070Z,100.00
2022-12-23T02:15:02.791Z,100.00
2022-12-23T02:16:04.130Z,99.81
2022-12-23T02:16:21.284Z,100.00
2022-12-23T02:16:40.277Z,100.00
2022-12-23T02:17:04.477Z,100.00
2022-12-23T02:17:25.773Z,100.00
2022-12-23T02:17:55.692Z,100.00
2022-12-23T02:18:28.624Z,100.00
2022-12-23T02:19:05.364Z,100.00
2022-12-23T02:19:45.504Z,100.00
2022-12-23T02:20:28.151Z,100.00
2022-12-23T02:21:01.505Z,100.00
2022-12-23T02:21:13.426Z,100.00
2022-12-23T02:21:58.509Z,100.00
2022-12-23T02:22:36.593Z,100.00
2022-12-23T02:22:54.173Z,100.00
2022-12-23T02:23:11.781Z,100.00
2022-12-23T02:23:52.560Z,100.00
2022-12-23T02:24:25.556Z,100.00
2022-12-23T02:25:07.222Z,100.00
2022-12-23T02:25:46.991Z,100.00
2022-12-23T02:26:21.773Z,100.00
2022-12-23T02:27:01.663Z,100.00
2022-12-23T02:27:17.109Z,100.00
2022-12-23T02:27:32.515Z,100.00
2022-12-23T02:27:54.155Z,100.00
2022-12-23T02:28:21.119Z,100.00
2022-12-23T02:28:57.698Z,100.00
2022-12-23T02:29:34.739Z,100.00
2022-12-23T02:30:19.230Z,100.00
2022-12-23T02:30:47.747Z,100.00
2022-12-23T02:31:20.262Z,100.00
2022-12-23T02:31:51.193Z,100.00
2022-12-23T02:32:14.467Z,100.00
2022-12-23T02:32:42.896Z,100.00
2022-12-23T02:33:06.687Z,100.00
2022-12-23T02:33:30.533Z,100.00
2022-12-23T02:34:08.884Z,100.00
2022-12-23T02:34:34.547Z,100.00
2022-12-23T02:35:13.738Z,100.00
2022-12-23T02:35:57.948Z,100.00
2022-12-23T02:36:12.604Z,100.00
2022-12-23T02:36:27.328Z,100.00
2022-12-23T02:36:52.988Z,100.00
2022-12-23T02:37:27.687Z,100.00
2022-12-23T02:38:00.764Z,100.00
2022-12-23T02:38:21.482Z,100.00
2022-12-23T02:38:48.215Z,100.00
2022-12-23T02:39:21.626Z,100.00
2022-12-23T02:39:46.413Z,100.00
2022-12-23T02:40:27.297Z,100.00
2022-12-23T02:40:45.077Z,100.00
2022-12-23T02:41:06.746Z,100.00
2022-12-23T02:41:32.109Z,100.00
2022-12-23T02:42:30.502Z,100.00
2022-12-23T02:42:53.968Z,100.00
2022-12-23T02:43:34.966Z,100.00
2022-12-23T02:43:51.676Z,100.00
2022-12-23T02:44:13.496Z,100.00
2022-12-23T02:44:41.362Z,100.00
2022-12-23T02:45:10.092Z,100.00
2022-12-23T02:45:33.042Z,100.00
2022-12-23T02:46:07.544Z,100.00
2022-12-23T02:46:25.918Z,100.00
2022-12-23T02:46:52.942Z,100.00
2022-12-23T02:47:11.225Z,100.00
2022-12-23T02:47:28.918Z,100.00
2022-12-23T02:47:48.227Z,100.00
2022-12-23T02:48:07.088Z,100.00
2022-12-23T02:48:24.237Z,100.00
2022-12-23T02:49:01.201Z,100.00
2022-12-23T02:49:18.871Z,100.00
2022-12-23T02:49:42.499Z,100.00
2022-12-23T02:49:58.894Z,100.00
2022-12-23T02:50:17.200Z,100.00
2022-12-23T02:50:36.599Z,100.00
2022-12-23T02:50:51.199Z,100.00
2022-12-23T02:51:05.868Z,100.00
2022-12-23T02:51:22.284Z,100.00
2022-12-23T02:51:38.844Z,100.00
2022-12-23T02:51:56.045Z,100.00
2022-12-23T02:52:17.253Z,100.00
2022-12-23T02:52:32.570Z,100.00
2022-12-23T02:52:48.032Z,100.00
2022-12-23T02:53:04.623Z,100.00
2022-12-23T02:53:27.367Z,100.00
2022-12-23T02:54:02.359Z,100.00
2022-12-23T02:54:22.548Z,100.00
2022-12-23T02:54:39.894Z,100.00
2022-12-23T02:54:57.761Z,100.00
2022-12-23T02:55:14.440Z,100.00
2022-12-23T02:55:34.664Z,100.00
2022-12-23T02:55:49.703Z,100.00
2022-12-23T02:56:05.695Z,100.00
2022-12-23T02:56:21.620Z,100.00
2022-12-23T02:56:36.930Z,100.00
2022-12-23T02:56:51.021Z,100.00
2022-12-23T02:57:06.778Z,100.00
2022-12-23T02:57:23.709Z,100.00
2022-12-23T02:57:44.694Z,100.00
2022-12-23T02:58:00.748Z,100.00
2022-12-23T02:58:17.435Z,100.00
2022-12-23T02:58:34.958Z,100.00
2022-12-23T02:59:02.745Z,100.00
2022-12-23T02:59:19.625Z,100.00
2022-12-23T02:59:41.164Z,100.00
2022-12-23T02:59:54.781Z,100.00
2022-12-23T03:00:07.691Z,100.00
2022-12-23T03:00:20.826Z,100.00
2022-12-23T03:00:33.774Z,100.00
2022-12-23T03:00:48.269Z,100.00
2022-12-23T03:01:01.935Z,100.00
2022-12-23T03:01:16.058Z,100.00
2022-12-23T03:01:31.757Z,100.00
2022-12-23T03:01:44.946Z,100.00
2022-12-23T03:01:58.527Z,100.00
2022-12-23T03:02:10.772Z,100.00
2022-12-23T03:02:23.053Z,100.00
2022-12-23T03:02:38.419Z,100.00
2022-12-23T03:02:50.721Z,100.00
2022-12-23T03:03:02.947Z,100.00
2022-12-23T03:03:17.225Z,100.00
2022-12-23T03:03:29.478Z,100.00
2022-12-23T03:03:42.453Z,100.00
2022-12-23T03:03:54.515Z,100.00
2022-12-23T03:04:06.857Z,100.00
2022-12-23T03:04:19.220Z,100.00
2022-12-23T03:04:31.487Z,100.00
2022-12-23T03:04:43.447Z,100.00
2022-12-23T03:04:55.460Z,100.00
2022-12-23T03:05:24.523Z,100.00
2022-12-23T03:05:40.588Z,100.00
2022-12-23T03:05:54.343Z,100.00
2022-12-23T03:06:19.861Z,100.00
2022-12-23T03:06:44.480Z,100.00
2022-12-23T03:07:02.822Z,100.00
2022-12-23T03:07:31.393Z,100.00
2022-12-23T03:07:43.752Z,100.00
2022-12-23T03:08:02.517Z,100.00
2022-12-23T03:08:25.663Z,100.00
2022-12-23T03:08:43.939Z,100.00
2022-12-23T03:08:59.378Z,100.00
2022-12-23T03:09:22.967Z,100.00
2022-12-23T03:09:56.543Z,100.00
2022-12-23T03:10:12.033Z,100.00
2022-12-23T03:10:29.995Z,100.00
2022-12-23T03:11:03.187Z,100.00
2022-12-23T03:11:17.190Z,100.00
2022-12-23T03:11:59.338Z,100.00
2022-12-23T03:12:39.210Z,100.00
2022-12-23T03:13:18.296Z,100.00
2022-12-23T03:13:48.550Z,100.00
2022-12-23T03:14:26.569Z,99.54
2022-12-23T03:15:16.507Z,99.26
2022-12-23T03:15:41.303Z,99.47
2022-12-23T03:15:56.847Z,99.47
2022-12-23T03:16:17.951Z,99.43
2022-12-23T03:16:42.473Z,99.44
2022-12-23T03:17:28.208Z,99.49
2022-12-23T03:17:44.331Z,99.44
2022-12-23T03:18:06.780Z,99.31
2022-12-23T03:18:27.032Z,99.56
2022-12-23T03:19:03.842Z,99.39
2022-12-23T03:19:34.441Z,99.46
2022-12-23T03:19:57.633Z,99.45
2022-12-23T03:20:23.213Z,99.39
2022-12-23T03:20:54.174Z,99.00
2022-12-23T03:21:09.612Z,99.04
2022-12-23T03:21:46.674Z,99.14
2022-12-23T03:22:29.129Z,99.33
2022-12-23T03:22:48.335Z,99.50
2022-12-23T03:23:18.906Z,99.72
2022-12-23T03:23:39.300Z,99.35
2022-12-23T03:24:01.878Z,99.59
2022-12-23T03:24:36.618Z,99.42
2022-12-23T03:25:03.943Z,99.50
2022-12-23T03:25:23.020Z,99.38
2022-12-23T03:25:47.941Z,99.25
2022-12-23T03:26:03.486Z,98.96
2022-12-23T03:26:38.987Z,99.12
2022-12-23T03:27:33.400Z,98.72
2022-12-23T03:27:55.890Z,98.29
2022-12-23T03:28:20.519Z,98.06
2022-12-23T03:29:06.740Z,98.66
2022-12-23T03:29:36.578Z,98.29
2022-12-23T03:30:04.776Z,98.30
2022-12-23T03:30:20.327Z,98.45
2022-12-23T03:30:36.836Z,98.09
2022-12-23T03:30:54.040Z,98.31
2022-12-23T03:31:10.780Z,98.35
2022-12-23T03:31:27.222Z,98.65
2022-12-23T03:31:41.324Z,98.60
2022-12-23T03:31:56.482Z,98.60
2022-12-23T03:32:12.741Z,98.29
2022-12-23T03:32:28.245Z,98.68
2022-12-23T03:32:48.512Z,98.96
2022-12-23T03:33:12.320Z,99.22
2022-12-23T03:33:29.778Z,98.96
2022-12-23T03:33:47.049Z,98.98
2022-12-23T03:34:21.357Z,98.62
2022-12-23T03:34:39.315Z,98.51
2022-12-23T03:34:54.978Z,98.43
2022-12-23T03:35:10.513Z,98.65
2022-12-23T03:35:36.079Z,98.24
2022-12-23T03:36:03.437Z,98.19
2022-12-23T03:36:20.300Z,98.14
2022-12-23T03:36:38.191Z,98.24
2022-12-23T03:36:57.207Z,98.34
2022-12-23T03:37:12.909Z,98.25
2022-12-23T03:37:28.489Z,98.50
2022-12-23T03:37:47.163Z,98.24
2022-12-23T03:38:02.589Z,98.26
2022-12-23T03:38:18.382Z,98.37
2022-12-23T03:38:33.440Z,98.36
2022-12-23T03:38:45.931Z,98.45
2022-12-23T03:38:59.005Z,98.07
2022-12-23T03:39:16.170Z,98.09
2022-12-23T03:39:36.657Z,98.10
2022-12-23T03:39:54.573Z,97.90
2022-12-23T03:40:32.721Z,97.97
2022-12-23T03:40:49.629Z,97.27
2022-12-23T03:41:07.718Z,97.65
2022-12-23T03:41:25.115Z,97.22
2022-12-23T03:41:42.620Z,97.40
2022-12-23T03:42:02.048Z,97.25
2022-12-23T03:42:20.935Z,97.13
2022-12-23T03:42:36.796Z,97.39
2022-12-23T03:42:55.442Z,97.65
2022-12-23T03:43:13.177Z,97.99
2022-12-23T03:43:30.519Z,97.61
2022-12-23T03:44:06.501Z,97.73
2022-12-23T03:44:26.323Z,97.56
2022-12-23T03:45:03.738Z,97.97
2022-12-23T03:45:59.198Z,97.82
2022-12-23T03:46:22.344Z,97.67
2022-12-23T03:46:42.445Z,97.53